sensor_id;sensor_type;location;lat;lon;timestamp;P1;durP1;ratioP1;P2;durP2;ratioP2
82948;SDS011;72736;50.236;18.876;2024-01-30T00:03:00;98.00;;;39.00;;
82948;SDS011;72736;50.236;18.876;2024-01-30T00:08:07;85.30;;;34.70;;
82948;SDS011;72736;50.236;18.876;2024-01-30T00:13:12;78.30;;;30.30;;
82948;SDS011;72736;50.236;18.876;2024-01-30T00:18:20;80.20;;;29.40;;
82948;SDS011;72736;50.236;18.876;2024-01-30T00:23:26;75.90;;;30.60;;
82948;SDS011;72736;50.236;18.876;2024-01-30T00:28:31;84.90;;;31.60;;
82948;SDS011;72736;50.236;18.876;2024-01-30T00:33:37;89.80;;;32.90;;
82948;SDS011;72736;50.236;18.876;2024-01-30T00:38:43;64.20;;;24.50;;
82948;SDS011;72736;50.236;18.876;2024-01-30T00:43:49;57.60;;;20.30;;
82948;SDS011;72736;50.236;18.876;2024-01-30T00:48:54;74.80;;;24.50;;
82948;SDS011;72736;50.236;18.876;2024-01-30T00:54:00;106.60;;;34.80;;
82948;SDS011;72736;50.236;18.876;2024-01-30T00:59:06;74.10;;;27.80;;
82948;SDS011;72736;50.236;18.876;2024-01-30T01:04:12;57.50;;;21.20;;
82948;SDS011;72736;50.236;18.876;2024-01-30T01:09:18;47.30;;;19.80;;
82948;SDS011;72736;50.236;18.876;2024-01-30T01:14:23;55.60;;;19.50;;
82948;SDS011;72736;50.236;18.876;2024-01-30T01:19:29;50.30;;;18.80;;
82948;SDS011;72736;50.236;18.876;2024-01-30T01:24:35;42.40;;;16.80;;
82948;SDS011;72736;50.236;18.876;2024-01-30T01:29:42;42.30;;;18.00;;
82948;SDS011;72736;50.236;18.876;2024-01-30T01:34:48;51.70;;;19.20;;
82948;SDS011;72736;50.236;18.876;2024-01-30T01:39:54;46.90;;;19.50;;
82948;SDS011;72736;50.236;18.876;2024-01-30T01:44:59;55.80;;;21.50;;
82948;SDS011;72736;50.236;18.876;2024-01-30T01:50:06;55.60;;;21.30;;
82948;SDS011;72736;50.236;18.876;2024-01-30T01:55:12;61.00;;;22.50;;
82948;SDS011;72736;50.236;18.876;2024-01-30T02:00:20;59.70;;;20.60;;
82948;SDS011;72736;50.236;18.876;2024-01-30T02:05:26;56.00;;;20.60;;
82948;SDS011;72736;50.236;18.876;2024-01-30T02:10:32;56.10;;;21.60;;
82948;SDS011;72736;50.236;18.876;2024-01-30T02:15:38;49.90;;;19.70;;
82948;SDS011;72736;50.236;18.876;2024-01-30T02:20:44;48.20;;;20.60;;
82948;SDS011;72736;50.236;18.876;2024-01-30T02:25:50;53.60;;;20.30;;
82948;SDS011;72736;50.236;18.876;2024-01-30T02:30:56;45.00;;;16.50;;
82948;SDS011;72736;50.236;18.876;2024-01-30T02:36:01;37.70;;;14.70;;
82948;SDS011;72736;50.236;18.876;2024-01-30T02:41:07;44.40;;;17.00;;
82948;SDS011;72736;50.236;18.876;2024-01-30T02:46:13;37.20;;;16.00;;
82948;SDS011;72736;50.236;18.876;2024-01-30T02:51:19;36.00;;;13.50;;
82948;SDS011;72736;50.236;18.876;2024-01-30T02:56:25;30.60;;;11.30;;
82948;SDS011;72736;50.236;18.876;2024-01-30T03:01:30;24.60;;;9.80;;
82948;SDS011;72736;50.236;18.876;2024-01-30T03:06:36;23.30;;;8.80;;
82948;SDS011;72736;50.236;18.876;2024-01-30T03:11:42;20.30;;;8.70;;
82948;SDS011;72736;50.236;18.876;2024-01-30T03:16:48;24.60;;;9.50;;
82948;SDS011;72736;50.236;18.876;2024-01-30T03:21:53;24.10;;;10.10;;
82948;SDS011;72736;50.236;18.876;2024-01-30T03:26:59;30.30;;;11.30;;
82948;SDS011;72736;50.236;18.876;2024-01-30T03:32:05;34.50;;;12.00;;
82948;SDS011;72736;50.236;18.876;2024-01-30T03:37:11;31.60;;;12.70;;
82948;SDS011;72736;50.236;18.876;2024-01-30T03:42:17;27.00;;;9.60;;
82948;SDS011;72736;50.236;18.876;2024-01-30T03:47:22;20.70;;;8.40;;
82948;SDS011;72736;50.236;18.876;2024-01-30T03:52:28;21.80;;;9.40;;
82948;SDS011;72736;50.236;18.876;2024-01-30T03:57:34;17.90;;;8.20;;
82948;SDS011;72736;50.236;18.876;2024-01-30T04:02:39;20.20;;;8.30;;
82948;SDS011;72736;50.236;18.876;2024-01-30T04:07:45;20.70;;;7.60;;
82948;SDS011;72736;50.236;18.876;2024-01-30T04:12:51;21.20;;;8.90;;
82948;SDS011;72736;50.236;18.876;2024-01-30T04:17:58;18.00;;;7.40;;
82948;SDS011;72736;50.236;18.876;2024-01-30T04:23:04;18.20;;;7.90;;
82948;SDS011;72736;50.236;18.876;2024-01-30T04:28:10;19.10;;;8.10;;
82948;SDS011;72736;50.236;18.876;2024-01-30T04:33:16;18.70;;;7.20;;
82948;SDS011;72736;50.236;18.876;2024-01-30T04:38:22;20.70;;;7.70;;
82948;SDS011;72736;50.236;18.876;2024-01-30T04:43:27;16.20;;;6.90;;
82948;SDS011;72736;50.236;18.876;2024-01-30T04:48:33;17.20;;;6.40;;
82948;SDS011;72736;50.236;18.876;2024-01-30T04:53:39;14.80;;;5.80;;
82948;SDS011;72736;50.236;18.876;2024-01-30T04:58:44;16.80;;;6.40;;
82948;SDS011;72736;50.236;18.876;2024-01-30T05:03:50;18.80;;;6.80;;
82948;SDS011;72736;50.236;18.876;2024-01-30T05:08:56;18.00;;;7.50;;
82948;SDS011;72736;50.236;18.876;2024-01-30T05:14:02;16.20;;;6.50;;
82948;SDS011;72736;50.236;18.876;2024-01-30T05:19:08;20.00;;;8.30;;
82948;SDS011;72736;50.236;18.876;2024-01-30T05:24:13;18.20;;;7.90;;
82948;SDS011;72736;50.236;18.876;2024-01-30T05:29:22;18.00;;;7.40;;
82948;SDS011;72736;50.236;18.876;2024-01-30T05:34:28;17.00;;;7.50;;
82948;SDS011;72736;50.236;18.876;2024-01-30T05:39:34;19.70;;;8.20;;
82948;SDS011;72736;50.236;18.876;2024-01-30T05:44:40;23.60;;;7.90;;
82948;SDS011;72736;50.236;18.876;2024-01-30T05:49:46;19.80;;;7.90;;
82948;SDS011;72736;50.236;18.876;2024-01-30T05:54:52;21.40;;;8.90;;
82948;SDS011;72736;50.236;18.876;2024-01-30T05:59:57;21.70;;;8.60;;
82948;SDS011;72736;50.236;18.876;2024-01-30T06:05:03;18.40;;;8.00;;
82948;SDS011;72736;50.236;18.876;2024-01-30T06:10:10;19.30;;;8.30;;
82948;SDS011;72736;50.236;18.876;2024-01-30T06:15:16;19.70;;;8.70;;
82948;SDS011;72736;50.236;18.876;2024-01-30T06:20:22;20.30;;;8.60;;
82948;SDS011;72736;50.236;18.876;2024-01-30T06:25:28;20.00;;;7.80;;
82948;SDS011;72736;50.236;18.876;2024-01-30T06:30:34;20.90;;;7.30;;
82948;SDS011;72736;50.236;18.876;2024-01-30T06:35:41;16.00;;;7.40;;
82948;SDS011;72736;50.236;18.876;2024-01-30T06:40:48;15.60;;;6.10;;
82948;SDS011;72736;50.236;18.876;2024-01-30T06:45:54;16.60;;;6.50;;
82948;SDS011;72736;50.236;18.876;2024-01-30T06:50:59;19.20;;;7.90;;
82948;SDS011;72736;50.236;18.876;2024-01-30T06:56:06;20.30;;;7.60;;
82948;SDS011;72736;50.236;18.876;2024-01-30T07:01:12;18.40;;;8.00;;
82948;SDS011;72736;50.236;18.876;2024-01-30T07:06:18;22.30;;;9.60;;
82948;SDS011;72736;50.236;18.876;2024-01-30T07:11:26;19.50;;;8.30;;
82948;SDS011;72736;50.236;18.876;2024-01-30T07:16:31;16.80;;;8.10;;
82948;SDS011;72736;50.236;18.876;2024-01-30T07:21:37;21.70;;;8.50;;
82948;SDS011;72736;50.236;18.876;2024-01-30T07:26:43;18.80;;;8.10;;
82948;SDS011;72736;50.236;18.876;2024-01-30T07:31:49;18.20;;;7.60;;
82948;SDS011;72736;50.236;18.876;2024-01-30T07:36:55;17.30;;;7.60;;
82948;SDS011;72736;50.236;18.876;2024-01-30T07:42:01;20.70;;;8.20;;
82948;SDS011;72736;50.236;18.876;2024-01-30T07:47:09;18.40;;;8.40;;
82948;SDS011;72736;50.236;18.876;2024-01-30T07:52:15;19.60;;;8.60;;
82948;SDS011;72736;50.236;18.876;2024-01-30T07:57:21;23.10;;;8.60;;
82948;SDS011;72736;50.236;18.876;2024-01-30T08:02:27;25.30;;;8.20;;
82948;SDS011;72736;50.236;18.876;2024-01-30T08:07:33;17.90;;;7.90;;
82948;SDS011;72736;50.236;18.876;2024-01-30T08:12:39;19.10;;;8.60;;
82948;SDS011;72736;50.236;18.876;2024-01-30T08:17:45;19.70;;;8.60;;
82948;SDS011;72736;50.236;18.876;2024-01-30T08:22:51;21.90;;;9.40;;
82948;SDS011;72736;50.236;18.876;2024-01-30T08:27:56;27.50;;;11.10;;
82948;SDS011;72736;50.236;18.876;2024-01-30T08:33:03;23.60;;;10.20;;
82948;SDS011;72736;50.236;18.876;2024-01-30T08:38:09;21.30;;;10.00;;
82948;SDS011;72736;50.236;18.876;2024-01-30T08:43:15;22.80;;;10.30;;
82948;SDS011;72736;50.236;18.876;2024-01-30T08:48:21;25.20;;;11.50;;
82948;SDS011;72736;50.236;18.876;2024-01-30T08:53:28;17.80;;;8.00;;
82948;SDS011;72736;50.236;18.876;2024-01-30T08:58:34;21.00;;;8.40;;
82948;SDS011;72736;50.236;18.876;2024-01-30T09:03:40;15.90;;;7.00;;
82948;SDS011;72736;50.236;18.876;2024-01-30T09:08:48;22.20;;;8.90;;
82948;SDS011;72736;50.236;18.876;2024-01-30T09:13:54;15.20;;;7.50;;
82948;SDS011;72736;50.236;18.876;2024-01-30T09:19:00;19.10;;;8.00;;
82948;SDS011;72736;50.236;18.876;2024-01-30T09:24:06;21.10;;;8.20;;
82948;SDS011;72736;50.236;18.876;2024-01-30T09:34:16;17.90;;;8.10;;
82948;SDS011;72736;50.236;18.876;2024-01-30T09:39:22;18.10;;;8.00;;
82948;SDS011;72736;50.236;18.876;2024-01-30T09:44:28;17.80;;;8.00;;
82948;SDS011;72736;50.236;18.876;2024-01-30T09:49:34;17.30;;;7.70;;
82948;SDS011;72736;50.236;18.876;2024-01-30T09:59:46;17.50;;;6.70;;
82948;SDS011;72736;50.236;18.876;2024-01-30T10:04:52;14.20;;;7.10;;
82948;SDS011;72736;50.236;18.876;2024-01-30T10:09:58;15.00;;;7.00;;
82948;SDS011;72736;50.236;18.876;2024-01-30T10:15:06;18.00;;;7.50;;
82948;SDS011;72736;50.236;18.876;2024-01-30T10:20:13;12.30;;;7.30;;
82948;SDS011;72736;50.236;18.876;2024-01-30T10:25:22;15.60;;;6.80;;
82948;SDS011;72736;50.236;18.876;2024-01-30T10:30:29;14.00;;;6.80;;
82948;SDS011;72736;50.236;18.876;2024-01-30T10:35:35;15.30;;;6.80;;
82948;SDS011;72736;50.236;18.876;2024-01-30T10:40:43;14.70;;;6.50;;
82948;SDS011;72736;50.236;18.876;2024-01-30T10:45:51;14.10;;;6.10;;
82948;SDS011;72736;50.236;18.876;2024-01-30T10:51:01;12.50;;;5.60;;
82948;SDS011;72736;50.236;18.876;2024-01-30T10:56:08;14.70;;;6.20;;
82948;SDS011;72736;50.236;18.876;2024-01-30T11:01:16;16.40;;;6.70;;
82948;SDS011;72736;50.236;18.876;2024-01-30T11:06:26;13.10;;;6.10;;
82948;SDS011;72736;50.236;18.876;2024-01-30T11:11:32;15.70;;;6.50;;
82948;SDS011;72736;50.236;18.876;2024-01-30T11:16:58;12.30;;;5.80;;
82948;SDS011;72736;50.236;18.876;2024-01-30T11:22:07;14.30;;;5.80;;
82948;SDS011;72736;50.236;18.876;2024-01-30T11:27:15;13.90;;;6.00;;
82948;SDS011;72736;50.236;18.876;2024-01-30T11:32:23;17.50;;;7.90;;
82948;SDS011;72736;50.236;18.876;2024-01-30T11:37:28;18.40;;;7.90;;
82948;SDS011;72736;50.236;18.876;2024-01-30T11:42:40;16.10;;;7.30;;
82948;SDS011;72736;50.236;18.876;2024-01-30T11:47:46;17.20;;;7.90;;
82948;SDS011;72736;50.236;18.876;2024-01-30T11:52:53;16.20;;;6.90;;
82948;SDS011;72736;50.236;18.876;2024-01-30T11:58:00;15.80;;;7.10;;
82948;SDS011;72736;50.236;18.876;2024-01-30T12:03:08;16.90;;;7.80;;
82948;SDS011;72736;50.236;18.876;2024-01-30T12:08:17;13.90;;;6.90;;
82948;SDS011;72736;50.236;18.876;2024-01-30T12:13:22;18.80;;;7.10;;
82948;SDS011;72736;50.236;18.876;2024-01-30T12:18:34;18.80;;;7.10;;
82948;SDS011;72736;50.236;18.876;2024-01-30T12:23:40;14.40;;;7.00;;
82948;SDS011;72736;50.236;18.876;2024-01-30T12:33:54;13.70;;;6.40;;
82948;SDS011;72736;50.236;18.876;2024-01-30T12:39:01;13.50;;;6.70;;
82948;SDS011;72736;50.236;18.876;2024-01-30T12:54:17;16.10;;;6.60;;
82948;SDS011;72736;50.236;18.876;2024-01-30T12:59:23;12.30;;;6.90;;
82948;SDS011;72736;50.236;18.876;2024-01-30T13:04:29;13.70;;;6.90;;
82948;SDS011;72736;50.236;18.876;2024-01-30T13:09:35;20.50;;;9.80;;
82948;SDS011;72736;50.236;18.876;2024-01-30T13:14:41;17.30;;;7.90;;
82948;SDS011;72736;50.236;18.876;2024-01-30T13:19:47;14.90;;;6.80;;
82948;SDS011;72736;50.236;18.876;2024-01-30T13:24:53;14.10;;;7.50;;
82948;SDS011;72736;50.236;18.876;2024-01-30T13:29:59;15.90;;;6.90;;
82948;SDS011;72736;50.236;18.876;2024-01-30T13:35:05;17.10;;;6.90;;
82948;SDS011;72736;50.236;18.876;2024-01-30T13:45:17;12.50;;;5.70;;
82948;SDS011;72736;50.236;18.876;2024-01-30T13:50:26;11.60;;;5.80;;
82948;SDS011;72736;50.236;18.876;2024-01-30T13:55:32;15.50;;;6.10;;
82948;SDS011;72736;50.236;18.876;2024-01-30T14:00:38;12.50;;;5.70;;
82948;SDS011;72736;50.236;18.876;2024-01-30T14:05:44;12.40;;;6.00;;
82948;SDS011;72736;50.236;18.876;2024-01-30T14:10:50;14.60;;;6.40;;
82948;SDS011;72736;50.236;18.876;2024-01-30T14:15:56;13.30;;;6.20;;
82948;SDS011;72736;50.236;18.876;2024-01-30T14:21:02;13.40;;;6.10;;
82948;SDS011;72736;50.236;18.876;2024-01-30T14:26:09;17.50;;;7.00;;
82948;SDS011;72736;50.236;18.876;2024-01-30T14:31:15;13.00;;;7.50;;
82948;SDS011;72736;50.236;18.876;2024-01-30T14:36:21;16.50;;;7.70;;
82948;SDS011;72736;50.236;18.876;2024-01-30T14:41:30;20.80;;;8.50;;
82948;SDS011;72736;50.236;18.876;2024-01-30T14:46:36;22.70;;;9.30;;
82948;SDS011;72736;50.236;18.876;2024-01-30T14:51:42;24.60;;;9.40;;
82948;SDS011;72736;50.236;18.876;2024-01-30T14:56:47;23.60;;;9.80;;
82948;SDS011;72736;50.236;18.876;2024-01-30T15:01:54;22.90;;;11.00;;
82948;SDS011;72736;50.236;18.876;2024-01-30T15:07:04;25.70;;;9.80;;
82948;SDS011;72736;50.236;18.876;2024-01-30T15:12:10;22.40;;;8.90;;
82948;SDS011;72736;50.236;18.876;2024-01-30T15:22:21;16.20;;;7.50;;
82948;SDS011;72736;50.236;18.876;2024-01-30T15:27:27;20.90;;;9.20;;
82948;SDS011;72736;50.236;18.876;2024-01-30T15:32:33;18.90;;;9.70;;
82948;SDS011;72736;50.236;18.876;2024-01-30T15:37:38;26.40;;;11.40;;
82948;SDS011;72736;50.236;18.876;2024-01-30T15:42:44;22.00;;;9.30;;
82948;SDS011;72736;50.236;18.876;2024-01-30T15:47:50;25.50;;;9.80;;
82948;SDS011;72736;50.236;18.876;2024-01-30T15:52:56;22.80;;;8.70;;
82948;SDS011;72736;50.236;18.876;2024-01-30T15:58:02;21.10;;;9.00;;
82948;SDS011;72736;50.236;18.876;2024-01-30T16:03:09;19.60;;;9.40;;
82948;SDS011;72736;50.236;18.876;2024-01-30T16:08:15;23.80;;;10.00;;
82948;SDS011;72736;50.236;18.876;2024-01-30T16:13:20;26.00;;;11.20;;
82948;SDS011;72736;50.236;18.876;2024-01-30T16:18:26;34.00;;;12.50;;
82948;SDS011;72736;50.236;18.876;2024-01-30T16:23:34;30.00;;;11.60;;
82948;SDS011;72736;50.236;18.876;2024-01-30T16:28:40;29.00;;;10.90;;
82948;SDS011;72736;50.236;18.876;2024-01-30T16:33:46;24.60;;;10.00;;
82948;SDS011;72736;50.236;18.876;2024-01-30T16:38:52;18.20;;;8.10;;
82948;SDS011;72736;50.236;18.876;2024-01-30T16:44:00;16.90;;;7.70;;
82948;SDS011;72736;50.236;18.876;2024-01-30T16:49:06;20.90;;;8.40;;
82948;SDS011;72736;50.236;18.876;2024-01-30T16:54:11;17.80;;;7.80;;
82948;SDS011;72736;50.236;18.876;2024-01-30T16:59:20;19.10;;;9.00;;
82948;SDS011;72736;50.236;18.876;2024-01-30T17:04:26;22.20;;;8.90;;
82948;SDS011;72736;50.236;18.876;2024-01-30T17:09:32;21.30;;;9.20;;
82948;SDS011;72736;50.236;18.876;2024-01-30T17:14:37;20.30;;;8.50;;
82948;SDS011;72736;50.236;18.876;2024-01-30T17:24:49;19.90;;;8.40;;
82948;SDS011;72736;50.236;18.876;2024-01-30T17:29:56;21.30;;;9.20;;
82948;SDS011;72736;50.236;18.876;2024-01-30T17:35:02;24.10;;;8.70;;
82948;SDS011;72736;50.236;18.876;2024-01-30T17:40:09;23.40;;;8.90;;
82948;SDS011;72736;50.236;18.876;2024-01-30T17:45:15;23.00;;;9.70;;
82948;SDS011;72736;50.236;18.876;2024-01-30T17:50:23;21.80;;;9.40;;
82948;SDS011;72736;50.236;18.876;2024-01-30T17:55:29;26.50;;;10.90;;
82948;SDS011;72736;50.236;18.876;2024-01-30T18:00:35;25.40;;;10.30;;
82948;SDS011;72736;50.236;18.876;2024-01-30T18:05:41;26.20;;;10.90;;
82948;SDS011;72736;50.236;18.876;2024-01-30T18:10:47;24.10;;;10.40;;
82948;SDS011;72736;50.236;18.876;2024-01-30T18:15:52;23.20;;;9.00;;
82948;SDS011;72736;50.236;18.876;2024-01-30T18:20:58;25.70;;;10.60;;
82948;SDS011;72736;50.236;18.876;2024-01-30T18:26:04;28.80;;;10.10;;
82948;SDS011;72736;50.236;18.876;2024-01-30T18:31:09;25.40;;;10.60;;
82948;SDS011;72736;50.236;18.876;2024-01-30T18:36:15;23.90;;;10.00;;
82948;SDS011;72736;50.236;18.876;2024-01-30T18:41:21;25.00;;;9.60;;
82948;SDS011;72736;50.236;18.876;2024-01-30T18:46:27;21.00;;;8.90;;
82948;SDS011;72736;50.236;18.876;2024-01-30T18:51:34;23.40;;;8.30;;
82948;SDS011;72736;50.236;18.876;2024-01-30T18:56:39;19.90;;;8.40;;
82948;SDS011;72736;50.236;18.876;2024-01-30T19:01:46;23.20;;;8.80;;
82948;SDS011;72736;50.236;18.876;2024-01-30T19:06:52;24.70;;;9.20;;
82948;SDS011;72736;50.236;18.876;2024-01-30T19:11:58;27.00;;;11.30;;
82948;SDS011;72736;50.236;18.876;2024-01-30T19:17:04;31.50;;;11.90;;
82948;SDS011;72736;50.236;18.876;2024-01-30T19:22:10;30.50;;;11.00;;
82948;SDS011;72736;50.236;18.876;2024-01-30T19:27:16;28.80;;;10.90;;
82948;SDS011;72736;50.236;18.876;2024-01-30T19:32:21;22.90;;;9.20;;
82948;SDS011;72736;50.236;18.876;2024-01-30T19:37:27;23.60;;;9.50;;
82948;SDS011;72736;50.236;18.876;2024-01-30T19:42:35;22.00;;;9.20;;
82948;SDS011;72736;50.236;18.876;2024-01-30T19:47:41;26.20;;;9.70;;
82948;SDS011;72736;50.236;18.876;2024-01-30T19:52:47;19.40;;;7.30;;
82948;SDS011;72736;50.236;18.876;2024-01-30T19:57:52;19.70;;;7.40;;
82948;SDS011;72736;50.236;18.876;2024-01-30T20:02:58;17.40;;;6.80;;
82948;SDS011;72736;50.236;18.876;2024-01-30T20:08:04;17.40;;;6.30;;
82948;SDS011;72736;50.236;18.876;2024-01-30T20:13:10;19.10;;;6.30;;
82948;SDS011;72736;50.236;18.876;2024-01-30T20:18:16;16.70;;;6.80;;
82948;SDS011;72736;50.236;18.876;2024-01-30T20:23:22;19.90;;;7.30;;
82948;SDS011;72736;50.236;18.876;2024-01-30T20:28:28;17.20;;;6.70;;
82948;SDS011;72736;50.236;18.876;2024-01-30T20:33:34;20.00;;;6.80;;
82948;SDS011;72736;50.236;18.876;2024-01-30T20:38:41;15.30;;;6.30;;
82948;SDS011;72736;50.236;18.876;2024-01-30T20:43:46;18.60;;;6.10;;
82948;SDS011;72736;50.236;18.876;2024-01-30T20:48:52;13.30;;;5.20;;
82948;SDS011;72736;50.236;18.876;2024-01-30T20:53:58;16.20;;;5.20;;
82948;SDS011;72736;50.236;18.876;2024-01-30T20:59:04;15.30;;;6.30;;
82948;SDS011;72736;50.236;18.876;2024-01-30T21:04:09;15.30;;;4.80;;
82948;SDS011;72736;50.236;18.876;2024-01-30T21:09:15;29.90;;;9.40;;
82948;SDS011;72736;50.236;18.876;2024-01-30T21:14:21;14.50;;;6.00;;
82948;SDS011;72736;50.236;18.876;2024-01-30T21:19:27;11.60;;;4.80;;
82948;SDS011;72736;50.236;18.876;2024-01-30T21:24:33;12.60;;;5.50;;
82948;SDS011;72736;50.236;18.876;2024-01-30T21:29:38;13.30;;;4.10;;
82948;SDS011;72736;50.236;18.876;2024-01-30T21:34:46;10.90;;;4.10;;
82948;SDS011;72736;50.236;18.876;2024-01-30T21:39:51;11.50;;;4.60;;
82948;SDS011;72736;50.236;18.876;2024-01-30T21:44:57;11.20;;;4.70;;
82948;SDS011;72736;50.236;18.876;2024-01-30T21:50:03;15.20;;;5.60;;
82948;SDS011;72736;50.236;18.876;2024-01-30T21:55:10;12.80;;;5.60;;
82948;SDS011;72736;50.236;18.876;2024-01-30T22:00:17;18.40;;;5.90;;
82948;SDS011;72736;50.236;18.876;2024-01-30T22:05:23;13.30;;;5.00;;
82948;SDS011;72736;50.236;18.876;2024-01-30T22:15:33;12.20;;;4.20;;
82948;SDS011;72736;50.236;18.876;2024-01-30T22:20:41;13.40;;;4.90;;
82948;SDS011;72736;50.236;18.876;2024-01-30T22:25:46;14.70;;;4.70;;
82948;SDS011;72736;50.236;18.876;2024-01-30T22:35:57;12.80;;;5.00;;
82948;SDS011;72736;50.236;18.876;2024-01-30T22:41:04;14.00;;;5.50;;
82948;SDS011;72736;50.236;18.876;2024-01-30T22:46:09;12.60;;;4.60;;
82948;SDS011;72736;50.236;18.876;2024-01-30T22:51:15;12.80;;;5.20;;
82948;SDS011;72736;50.236;18.876;2024-01-30T22:56:21;12.10;;;4.90;;
82948;SDS011;72736;50.236;18.876;2024-01-30T23:01:27;12.40;;;4.90;;
82948;SDS011;72736;50.236;18.876;2024-01-30T23:06:34;12.10;;;4.90;;
82948;SDS011;72736;50.236;18.876;2024-01-30T23:11:40;12.10;;;4.80;;
82948;SDS011;72736;50.236;18.876;2024-01-30T23:16:46;13.00;;;4.60;;
82948;SDS011;72736;50.236;18.876;2024-01-30T23:21:52;12.20;;;4.60;;
82948;SDS011;72736;50.236;18.876;2024-01-30T23:26:58;15.10;;;5.40;;
82948;SDS011;72736;50.236;18.876;2024-01-30T23:32:05;11.90;;;5.10;;
82948;SDS011;72736;50.236;18.876;2024-01-30T23:37:11;12.10;;;5.40;;
82948;SDS011;72736;50.236;18.876;2024-01-30T23:42:17;12.10;;;4.60;;
82948;SDS011;72736;50.236;18.876;2024-01-30T23:47:22;12.00;;;5.30;;
82948;SDS011;72736;50.236;18.876;2024-01-30T23:52:30;11.90;;;4.90;;
82948;SDS011;72736;50.236;18.876;2024-01-30T23:57:37;14.50;;;5.40;;
